Time,TemperatureF,DewpointF,PressureIn,WindDirection,WindDirectionDegrees,WindSpeedMPH,WindSpeedGustMPH,Humidity,HourlyPrecipIn,Conditions,Clouds,dailyrainin,SoftwareType,DateUTC
2013-05-12 00:00:00,44.6,38.8,29.87,ENE,75,0.0,1.0,80,0.00,,,0.00,Wunderground v.1.15,2013-05-12 04:00:00,
2013-05-12 00:05:00,44.6,38.2,29.87,ENE,65,1.0,1.0,78,0.00,,,0.00,Wunderground v.1.15,2013-05-12 04:05:00,
2013-05-12 00:10:00,44.6,38.8,29.87,North,5,1.0,1.0,80,0.00,,,0.00,Wunderground v.1.15,2013-05-12 04:10:00,
2013-05-12 00:15:00,44.6,38.5,29.88,ENE,60,1.0,3.0,79,0.00,,,0.00,Wunderground v.1.15,2013-05-12 04:15:00,
2013-05-12 00:20:00,44.6,38.5,29.88,ENE,61,1.0,1.0,79,0.00,,,0.00,Wunderground v.1.15,2013-05-12 04:20:00,
2013-05-12 00:25:00,44.6,38.2,29.88,NNE,19,1.0,1.0,78,0.00,,,0.00,Wunderground v.1.15,2013-05-12 04:25:00,
2013-05-12 00:30:00,44.6,38.5,29.89,North,9,1.0,1.0,79,0.00,,,0.00,Wunderground v.1.15,2013-05-12 04:30:00,
2013-05-12 00:40:00,44.5,38.1,29.89,East,98,1.0,1.0,78,0.00,,,0.00,Wunderground v.1.15,2013-05-12 04:40:00,
2013-05-12 00:45:00,44.5,38.1,29.89,East,94,0.0,1.0,78,0.00,,,0.00,Wunderground v.1.15,2013-05-12 04:45:00,
2013-05-12 00:55:00,44.3,37.5,29.89,East,96,1.0,1.0,77,0.00,,,0.00,Wunderground v.1.15,2013-05-12 04:55:00,
2013-05-12 01:00:00,44.2,37.4,29.89,SSE,156,1.0,3.0,77,0.00,,,0.00,Wunderground v.1.15,2013-05-12 05:00:00,
2013-05-12 01:10:00,44.1,37.0,29.89,NNE,15,0.0,0.0,76,0.00,,,0.00,Wunderground v.1.15,2013-05-12 05:10:00,
2013-05-12 01:15:00,43.9,36.8,29.90,ENE,69,0.0,1.0,76,0.00,,,0.00,Wunderground v.1.15,2013-05-12 05:15:00,
2013-05-12 01:25:00,43.8,36.0,29.90,NNE,20,1.0,1.0,74,0.00,,,0.00,Wunderground v.1.15,2013-05-12 05:25:00,
2013-05-12 01:30:00,43.6,35.9,29.90,NNE,25,0.0,1.0,74,0.00,,,0.00,Wunderground v.1.15,2013-05-12 05:30:00,
2013-05-12 01:40:00,43.3,34.9,29.90,NNE,30,1.0,1.0,72,0.00,,,0.00,Wunderground v.1.15,2013-05-12 05:40:00,
2013-05-12 01:45:00,43.2,34.8,29.90,North,5,1.0,1.0,72,0.00,,,0.00,Wunderground v.1.15,2013-05-12 05:45:00,
2013-05-12 01:55:00,42.9,35.2,29.90,NNW,342,0.0,2.0,74,0.00,,,0.00,Wunderground v.1.15,2013-05-12 05:55:00,
2013-05-12 02:00:00,42.8,35.1,29.90,SW,216,0.0,0.0,74,0.00,,,0.00,Wunderground v.1.15,2013-05-12 06:00:00,
2013-05-12 02:10:00,42.3,34.9,29.90,NE,53,0.0,0.0,75,0.00,,,0.00,Wunderground v.1.15,2013-05-12 06:10:00,
2013-05-12 02:15:00,42.1,34.7,29.90,NE,53,0.0,1.0,75,0.00,,,0.00,Wunderground v.1.15,2013-05-12 06:15:00,
2013-05-12 02:25:00,41.6,34.6,29.90,NE,41,0.0,0.0,76,0.00,,,0.00,Wunderground v.1.15,2013-05-12 06:25:00,
2013-05-12 02:30:00,41.3,34.3,29.90,NE,41,0.0,0.0,76,0.00,,,0.00,Wunderground v.1.15,2013-05-12 06:30:00,
2013-05-12 02:40:00,40.8,34.1,29.90,NE,41,0.0,0.0,77,0.00,,,0.00,Wunderground v.1.15,2013-05-12 06:40:00,
2013-05-12 02:45:00,40.5,34.5,29.90,NE,41,0.0,0.0,79,0.00,,,0.00,Wunderground v.1.15,2013-05-12 06:45:00,
2013-05-12 02:55:00,40.1,34.4,29.90,NE,41,0.0,0.0,80,0.00,,,0.00,Wunderground v.1.15,2013-05-12 06:55:00,
2013-05-12 03:00:00,39.6,34.2,29.90,NE,41,0.0,0.0,81,0.00,,,0.00,Wunderground v.1.15,2013-05-12 07:00:00,
2013-05-12 03:05:00,39.3,34.3,29.90,NE,41,0.0,0.0,82,0.00,,,0.00,Wunderground v.1.15,2013-05-12 07:05:00,
2013-05-12 03:15:00,38.9,34.5,29.90,NE,41,0.0,0.0,84,0.00,,,0.00,Wunderground v.1.15,2013-05-12 07:15:00,
2013-05-12 03:25:00,38.5,34.1,29.90,NE,41,0.0,0.0,84,0.00,,,0.00,Wunderground v.1.15,2013-05-12 07:25:00,
2013-05-12 03:30:00,38.3,34.2,29.90,NE,41,0.0,0.0,85,0.00,,,0.00,Wunderground v.1.15,2013-05-12 07:30:00,
2013-05-12 03:40:00,38.0,34.5,29.90,NE,41,0.0,0.0,87,0.00,,,0.00,Wunderground v.1.15,2013-05-12 07:40:00,
2013-05-12 03:45:00,38.2,35.0,29.90,NE,41,0.0,0.0,88,0.00,,,0.00,Wunderground v.1.15,2013-05-12 07:45:00,
2013-05-12 03:55:00,38.2,35.2,29.90,NE,41,0.0,0.0,89,0.00,,,0.00,Wunderground v.1.15,2013-05-12 07:55:00,
2013-05-12 04:00:00,38.2,35.2,29.90,NE,41,0.0,0.0,89,0.00,,,0.00,Wunderground v.1.15,2013-05-12 08:00:00,
2013-05-12 04:10:00,38.0,35.0,29.90,NE,41,0.0,0.0,89,0.00,,,0.00,Wunderground v.1.15,2013-05-12 08:10:00,
2013-05-12 04:15:00,38.0,35.0,29.90,NE,41,0.0,0.0,89,0.00,,,0.00,Wunderground v.1.15,2013-05-12 08:15:00,
2013-05-12 04:25:00,37.9,35.2,29.90,NE,41,0.0,0.0,90,0.00,,,0.00,Wunderground v.1.15,2013-05-12 08:25:00,
2013-05-12 04:30:00,37.9,35.2,29.89,NE,41,0.0,0.0,90,0.00,,,0.00,Wunderground v.1.15,2013-05-12 08:30:00,
2013-05-12 04:40:00,37.8,35.1,29.89,NE,41,0.0,0.0,90,0.00,,,0.00,Wunderground v.1.15,2013-05-12 08:40:00,
2013-05-12 04:45:00,37.8,35.1,29.89,NE,41,0.0,0.0,90,0.00,,,0.00,Wunderground v.1.15,2013-05-12 08:45:00,
2013-05-12 04:55:00,37.6,34.9,29.89,NE,41,0.0,0.0,90,0.00,,,0.00,Wunderground v.1.15,2013-05-12 08:55:00,
2013-05-12 05:00:00,37.5,34.8,29.89,NE,41,0.0,0.0,90,0.00,,,0.00,Wunderground v.1.15,2013-05-12 09:00:00,
2013-05-12 05:10:00,37.5,35.1,29.89,NE,41,0.0,0.0,91,0.00,,,0.00,Wunderground v.1.15,2013-05-12 09:10:00,
2013-05-12 05:15:00,37.5,35.1,29.90,NE,41,0.0,0.0,91,0.00,,,0.00,Wunderground v.1.15,2013-05-12 09:15:00,
2013-05-12 05:25:00,37.5,35.1,29.90,NE,41,0.0,0.0,91,0.00,,,0.00,Wunderground v.1.15,2013-05-12 09:25:00,
2013-05-12 05:30:00,37.5,35.1,29.90,NE,41,0.0,0.0,91,0.00,,,0.00,Wunderground v.1.15,2013-05-12 09:30:00,
2013-05-12 05:40:00,37.3,34.9,29.90,NE,41,0.0,0.0,91,0.00,,,0.00,Wunderground v.1.15,2013-05-12 09:40:00,
2013-05-12 05:45:00,37.2,34.8,29.90,NE,41,0.0,0.0,91,0.00,,,0.00,Wunderground v.1.15,2013-05-12 09:45:00,
2013-05-12 05:55:00,37.2,34.8,29.90,NE,41,0.0,0.0,91,0.00,,,0.00,Wunderground v.1.15,2013-05-12 09:55:00,
2013-05-12 06:00:00,37.2,34.8,29.90,NE,41,0.0,0.0,91,0.00,,,0.00,Wunderground v.1.15,2013-05-12 10:00:00,
2013-05-12 06:10:00,37.0,34.6,29.90,NE,41,0.0,0.0,91,0.00,,,0.00,Wunderground v.1.15,2013-05-12 10:10:00,
2013-05-12 06:15:00,37.0,34.6,29.91,NE,51,0.0,0.0,91,0.00,,,0.00,Wunderground v.1.15,2013-05-12 10:15:00,
2013-05-12 06:25:00,37.0,34.6,29.91,NE,51,0.0,0.0,91,0.00,,,0.00,Wunderground v.1.15,2013-05-12 10:25:00,
2013-05-12 06:30:00,37.0,34.6,29.91,NE,51,0.0,0.0,91,0.00,,,0.00,Wunderground v.1.15,2013-05-12 10:30:00,
2013-05-12 06:40:00,37.0,34.6,29.91,NE,46,0.0,0.0,91,0.00,,,0.00,Wunderground v.1.15,2013-05-12 10:40:00,
2013-05-12 06:45:00,37.0,34.6,29.92,SSE,153,0.0,0.0,91,0.00,,,0.00,Wunderground v.1.15,2013-05-12 10:45:00,
2013-05-12 06:55:00,37.2,34.8,29.92,ENE,75,0.0,0.0,91,0.00,,,0.00,Wunderground v.1.15,2013-05-12 10:55:00,
2013-05-12 07:00:00,37.2,34.8,29.92,ENE,75,0.0,0.0,91,0.00,,,0.00,Wunderground v.1.15,2013-05-12 11:00:00,
2013-05-12 07:10:00,37.3,34.6,29.92,ENE,75,0.0,0.0,90,0.00,,,0.00,Wunderground v.1.15,2013-05-12 11:10:00,
2013-05-12 07:15:00,37.5,34.8,29.92,ENE,75,0.0,0.0,90,0.00,,,0.00,Wunderground v.1.15,2013-05-12 11:15:00,
2013-05-12 07:25:00,37.9,35.2,29.92,East,89,0.0,0.0,90,0.00,,,0.00,Wunderground v.1.15,2013-05-12 11:25:00,
2013-05-12 07:30:00,38.2,35.2,29.92,SE,135,0.0,1.0,89,0.00,,,0.00,Wunderground v.1.15,2013-05-12 11:30:00,
2013-05-12 07:40:00,38.8,35.6,29.92,ENE,64,0.0,0.0,88,0.00,,,0.00,Wunderground v.1.15,2013-05-12 11:40:00,
2013-05-12 07:45:00,39.1,35.6,29.93,ESE,115,0.0,0.0,87,0.00,,,0.00,Wunderground v.1.15,2013-05-12 11:45:00,
2013-05-12 07:55:00,39.6,35.2,29.93,ESE,115,1.0,1.0,84,0.00,,,0.00,Wunderground v.1.15,2013-05-12 11:55:00,
2013-05-12 08:00:00,39.9,35.2,29.93,East,91,0.0,0.0,83,0.00,,,0.00,Wunderground v.1.15,2013-05-12 12:00:00,
2013-05-12 08:10:00,40.5,35.4,29.93,East,98,1.0,1.0,82,0.00,,,0.00,Wunderground v.1.15,2013-05-12 12:10:00,
2013-05-12 08:15:00,40.8,35.4,29.93,East,98,0.0,1.0,81,0.00,,,0.00,Wunderground v.1.15,2013-05-12 12:15:00,
2013-05-12 08:25:00,41.3,35.0,29.93,East,94,1.0,1.0,78,0.00,,,0.00,Wunderground v.1.15,2013-05-12 12:25:00,
2013-05-12 08:30:00,41.6,35.2,29.93,SW,219,0.0,2.0,78,0.00,,,0.00,Wunderground v.1.15,2013-05-12 12:30:00,
2013-05-12 08:40:00,42.2,34.5,29.93,East,98,1.0,2.0,74,0.00,,,0.00,Wunderground v.1.15,2013-05-12 12:40:00,
2013-05-12 08:45:00,42.6,34.5,29.94,ENE,78,1.0,2.0,73,0.00,,,0.00,Wunderground v.1.15,2013-05-12 12:45:00,
2013-05-12 08:55:00,43.3,34.2,29.94,NNE,33,1.0,3.0,70,0.00,,,0.00,Wunderground v.1.15,2013-05-12 12:55:00,
2013-05-12 09:00:00,43.8,34.6,29.94,SSE,150,1.0,1.0,70,0.00,,,0.00,Wunderground v.1.15,2013-05-12 13:00:00,
2013-05-12 09:10:00,44.1,33.5,29.94,West,271,1.0,2.0,66,0.00,,,0.00,Wunderground v.1.15,2013-05-12 13:10:00,
2013-05-12 09:15:00,44.3,34.4,29.94,NE,43,2.0,3.0,68,0.00,,,0.00,Wunderground v.1.15,2013-05-12 13:15:00,
2013-05-12 09:25:00,45.1,34.0,29.94,NE,49,0.0,1.0,65,0.00,,,0.00,Wunderground v.1.15,2013-05-12 13:25:00,
2013-05-12 09:30:00,45.4,33.9,29.94,SE,138,0.0,0.0,64,0.00,,,0.00,Wunderground v.1.15,2013-05-12 13:30:00,
2013-05-12 09:40:00,45.4,30.6,29.94,NNE,28,2.0,2.0,56,0.00,,,0.00,Wunderground v.1.15,2013-05-12 13:40:00,
2013-05-12 09:45:00,45.5,33.2,29.94,SE,130,2.0,2.0,62,0.00,,,0.00,Wunderground v.1.15,2013-05-12 13:45:00,
2013-05-12 09:55:00,46.1,31.7,29.94,East,88,2.0,2.0,57,0.00,,,0.00,Wunderground v.1.15,2013-05-12 13:55:00,
2013-05-12 10:00:00,46.4,32.8,29.94,ESE,111,1.0,1.0,59,0.00,,,0.00,Wunderground v.1.15,2013-05-12 14:00:00,
2013-05-12 10:10:00,46.5,31.2,29.94,ESE,107,1.0,1.0,55,0.00,,,0.00,Wunderground v.1.15,2013-05-12 14:10:00,
2013-05-12 10:15:00,46.7,31.4,29.94,NNE,27,1.0,3.0,55,0.00,,,0.00,Wunderground v.1.15,2013-05-12 14:15:00,
2013-05-12 10:25:00,46.7,31.4,29.94,ESE,119,2.0,2.0,55,0.00,,,0.00,Wunderground v.1.15,2013-05-12 14:25:00,
2013-05-12 10:30:00,46.4,29.7,29.94,East,90,1.0,1.0,52,0.00,,,0.00,Wunderground v.1.15,2013-05-12 14:30:00,
2013-05-12 10:40:00,46.2,30.5,29.94,WSW,252,1.0,1.0,54,0.00,,,0.00,Wunderground v.1.15,2013-05-12 14:40:00,
2013-05-12 10:45:00,46.4,28.8,29.95,East,82,1.0,3.0,50,0.00,,,0.00,Wunderground v.1.15,2013-05-12 14:45:00,
2013-05-12 10:55:00,47.1,30.8,29.95,NE,47,1.0,5.0,53,0.00,,,0.00,Wunderground v.1.15,2013-05-12 14:55:00,
2013-05-12 11:00:00,47.9,32.9,29.95,West,263,2.0,2.0,56,0.00,,,0.00,Wunderground v.1.15,2013-05-12 15:00:00,
2013-05-12 11:10:00,47.9,30.1,29.95,East,86,1.0,1.0,50,0.00,,,0.00,Wunderground v.1.15,2013-05-12 15:10:00,
2013-05-12 11:15:00,47.9,30.1,29.96,NE,42,2.0,2.0,50,0.00,,,0.00,Wunderground v.1.15,2013-05-12 15:15:00,
2013-05-12 11:25:00,47.7,30.0,29.96,SSW,213,2.0,5.0,50,0.00,,,0.00,Wunderground v.1.15,2013-05-12 15:25:00,
2013-05-12 11:30:00,47.4,28.2,29.96,NNE,26,2.0,3.0,47,0.00,,,0.00,Wunderground v.1.15,2013-05-12 15:30:00,
2013-05-12 11:40:00,48.0,29.7,29.96,NW,325,2.0,2.0,49,0.00,,,0.00,Wunderground v.1.15,2013-05-12 15:40:00,
2013-05-12 11:45:00,47.7,30.4,29.96,NNE,18,2.0,2.0,51,0.00,,,0.00,Wunderground v.1.15,2013-05-12 15:45:00,
2013-05-12 11:55:00,47.9,29.1,29.96,NNW,344,1.0,1.0,48,0.00,,,0.00,Wunderground v.1.15,2013-05-12 15:55:00,
2013-05-12 12:00:00,47.9,30.6,29.96,East,85,1.0,2.0,51,0.00,,,0.00,Wunderground v.1.15,2013-05-12 16:00:00,
2013-05-12 12:10:00,48.0,30.2,29.96,South,189,1.0,1.0,50,0.00,,,0.00,Wunderground v.1.15,2013-05-12 16:10:00,
2013-05-12 12:15:00,47.9,30.1,29.96,ENE,76,1.0,2.0,50,0.00,,,0.00,Wunderground v.1.15,2013-05-12 16:15:00,
2013-05-12 12:25:00,47.4,30.2,29.96,ENE,72,2.0,2.0,51,0.00,,,0.00,Wunderground v.1.15,2013-05-12 16:25:00,
2013-05-12 12:30:00,48.0,29.7,29.96,West,279,2.0,2.0,49,0.00,,,0.00,Wunderground v.1.15,2013-05-12 16:30:00,
2013-05-12 12:40:00,48.6,30.3,29.96,NE,55,2.0,2.0,49,0.00,,,0.00,Wunderground v.1.15,2013-05-12 16:40:00,
2013-05-12 12:45:00,48.2,29.9,29.97,East,101,1.0,2.0,49,0.00,,,0.00,Wunderground v.1.15,2013-05-12 16:45:00,
2013-05-12 12:55:00,49.1,31.2,29.97,SSW,197,1.0,1.0,50,0.00,,,0.00,Wunderground v.1.15,2013-05-12 16:55:00,
2013-05-12 13:00:00,49.1,30.7,29.97,SW,229,1.0,2.0,49,0.00,,,0.00,Wunderground v.1.15,2013-05-12 17:00:00,
2013-05-12 13:10:00,49.2,31.8,29.97,WNW,291,1.0,1.0,51,0.00,,,0.00,Wunderground v.1.15,2013-05-12 17:10:00,
2013-05-12 13:15:00,48.6,30.8,29.97,SSW,202,1.0,1.0,50,0.00,,,0.00,Wunderground v.1.15,2013-05-12 17:15:00,
2013-05-12 13:25:00,47.7,29.5,29.97,West,266,1.0,2.0,49,0.00,,,0.00,Wunderground v.1.15,2013-05-12 17:25:00,
2013-05-12 13:30:00,48.2,29.9,29.98,NNW,344,1.0,1.0,49,0.00,,,0.00,Wunderground v.1.15,2013-05-12 17:30:00,
2013-05-12 13:40:00,47.9,32.5,29.98,East,88,1.0,2.0,55,0.00,,,0.00,Wunderground v.1.15,2013-05-12 17:40:00,
2013-05-12 13:45:00,48.5,31.7,29.98,SSE,153,1.0,2.0,52,0.00,,,0.00,Wunderground v.1.15,2013-05-12 17:45:00,
2013-05-12 13:55:00,49.1,31.2,29.98,ESE,109,2.0,2.0,50,0.00,,,0.00,Wunderground v.1.15,2013-05-12 17:55:00,
2013-05-12 14:00:00,49.2,29.3,29.98,NE,40,2.0,3.0,46,0.00,,,0.00,Wunderground v.1.15,2013-05-12 18:00:00,
2013-05-12 14:10:00,49.9,32.0,29.98,East,93,2.0,2.0,50,0.00,,,0.00,Wunderground v.1.15,2013-05-12 18:10:00,
2013-05-12 14:15:00,50.1,31.7,29.98,East,99,1.0,2.0,49,0.00,,,0.00,Wunderground v.1.15,2013-05-12 18:15:00,
2013-05-12 14:25:00,48.9,30.1,29.98,NE,44,1.0,3.0,48,0.00,,,0.00,Wunderground v.1.15,2013-05-12 18:25:00,
2013-05-12 14:30:00,48.9,31.5,29.99,South,178,2.0,2.0,51,0.00,,,0.00,Wunderground v.1.15,2013-05-12 18:30:00,
2013-05-12 14:40:00,49.2,31.8,29.99,West,271,2.0,3.0,51,0.00,,,0.00,Wunderground v.1.15,2013-05-12 18:40:00,
2013-05-12 14:45:00,49.8,31.4,29.98,ESE,113,2.0,3.0,49,0.00,,,0.00,Wunderground v.1.15,2013-05-12 18:45:00,
2013-05-12 14:55:00,50.8,35.2,29.98,SE,128,2.0,3.0,55,0.00,,,0.00,Wunderground v.1.15,2013-05-12 18:55:00,
2013-05-12 15:00:00,52.2,33.6,29.98,WSW,246,2.0,2.0,49,0.00,,,0.00,Wunderground v.1.15,2013-05-12 19:00:00,
2013-05-12 15:10:00,51.3,29.5,29.98,WSW,238,2.0,2.0,43,0.00,,,0.00,Wunderground v.1.15,2013-05-12 19:10:00,
2013-05-12 15:15:00,50.1,30.6,29.99,SW,227,2.0,2.0,47,0.00,,,0.00,Wunderground v.1.15,2013-05-12 19:15:00,